Time;durP1;ratioP1;P1;durP2;ratioP2;P2;SDS_P1;SDS_P2;PMS_P1;PMS_P2;Temp;Humidity;BMP_temperature;BMP_pressure;BME280_temperature;BME280_humidity;BME280_pressure;Samples;Min_cycle;Max_cycle;Signal;HPM_P1;HPM_P2
2021/12/02 00:00:36;;;;;;;1.33;0.40;;;;;;;;;;5036362;28;20060;-73
2021/12/02 00:03:04;;;;;;;3.15;0.60;;;;;;;;;;5038429;28;20813;-72
2021/12/02 00:05:30;;;;;;;3.13;1.17;;;;;;;;;;5040864;28;20082;-72
2021/12/02 00:07:56;;;;;;;1.33;0.28;;;;;;;;;;5045404;28;20457;-73
2021/12/02 00:10:27;;;;;;;5.65;1.10;;;;;;;;;;5045673;28;20029;-72
2021/12/02 00:12:54;;;;;;;3.90;0.30;;;6.20;99.90;;;;;;5030299;28;20377;-72
2021/12/02 00:15:24;;;;;;;1.52;0.40;;;;;;;;;;5014946;28;20027;-71
2021/12/02 00:17:57;;;;;;;3.03;0.30;;;6.00;99.90;;;;;;5048970;28;20017;-71
2021/12/02 00:23:28;;;;;;;1.75;0.30;;;6.00;99.90;;;;;;5032991;28;20136;-72
2021/12/02 00:25:59;;;;;;;2.72;0.22;;;5.90;99.90;;;;;;5033148;28;20072;-72
2021/12/02 00:28:26;;;;;;;0.60;0.10;;;;;;;;;;5047702;28;20037;-72
2021/12/02 00:30:55;;;;;;;3.05;0.30;;;5.80;99.90;;;;;;5047934;28;20102;-71
2021/12/02 00:33:23;;;;;;;2.58;0.32;;;5.80;99.90;;;;;;5048472;28;20068;-72
2021/12/02 00:35:50;;;;;;;4.00;0.40;;;5.10;99.90;;;;;;5039856;28;20113;-72
2021/12/02 00:38:21;;;;;;;2.33;0.20;;;5.80;99.90;;;;;;5027187;28;20052;-73
2021/12/02 00:40:47;;;;;;;1.38;0.40;;;5.80;99.90;;;;;;5043549;28;20505;-71
2021/12/02 00:43:13;;;;;;;3.58;0.20;;;5.90;99.90;;;;;;5030467;28;20164;-71
2021/12/02 00:45:40;;;;;;;3.55;0.45;;;5.90;99.90;;;;;;5030728;28;20021;-71
2021/12/02 00:48:10;;;;;;;3.50;0.40;;;5.90;99.90;;;;;;5038951;28;20029;-71
2021/12/02 00:50:38;;;;;;;2.30;0.30;;;6.00;99.90;;;;;;5034749;28;20024;-71
2021/12/02 00:53:06;;;;;;;3.90;0.60;;;5.90;99.90;;;;;;5029417;28;20064;-72
2021/12/02 00:55:36;;;;;;;2.95;0.40;;;5.80;99.90;;;;;;5044533;28;20064;-71
2021/12/02 00:58:02;;;;;;;4.68;0.40;;;5.60;99.90;;;;;;4700777;28;10000577;-71
2021/12/02 01:00:28;;;;;;;4.45;0.88;;;5.10;99.90;;;;;;5049247;28;20559;-72
2021/12/02 01:02:54;;;;;;;3.35;0.40;;;4.70;99.90;;;;;;5036360;28;20040;-70
2021/12/02 01:05:20;;;;;;;5.03;0.45;;;;;;;;;;5033975;28;20391;-72
2021/12/02 01:07:46;;;;;;;5.07;0.52;;;4.10;99.90;;;;;;5049853;28;20462;-73
2021/12/02 01:10:12;;;;;;;3.70;0.47;;;;;;;;;;5034297;28;20119;-70
2021/12/02 01:12:37;;;;;;;3.08;0.60;;;3.90;99.90;;;;;;5051868;28;20375;-70
2021/12/02 01:15:07;;;;;;;9.60;0.68;;;3.60;99.90;;;;;;5050333;28;20032;-72
2021/12/02 01:17:33;;;;;;;2.20;0.30;;;;;;;;;;5032464;28;20025;-72
2021/12/02 01:19:59;;;;;;;0.57;0.10;;;;;;;;;;5032082;28;20104;-72
2021/12/02 01:22:28;;;;;;;1.27;0.20;;;3.30;99.90;;;;;;5036839;28;20067;-72
2021/12/02 01:24:54;;;;;;;0.95;0.30;;;3.20;99.90;;;;;;5033730;28;20029;-74
2021/12/02 01:27:21;;;;;;;1.45;0.20;;;3.30;99.90;;;;;;5036206;28;20021;-73
2021/12/02 01:29:50;;;;;;;1.80;0.10;;;3.90;99.90;;;;;;5047876;28;20510;-72
2021/12/02 01:32:16;;;;;;;1.65;0.10;;;3.20;99.90;;;;;;5051583;28;20078;-72
2021/12/02 01:34:45;;;;;;;0.68;0.10;;;3.20;99.90;;;;;;5034536;28;20112;-73
2021/12/02 01:37:11;;;;;;;0.35;0.08;;;3.10;99.90;;;;;;5015846;28;20026;-72
2021/12/02 01:39:37;;;;;;;0.57;0.10;;;3.20;99.90;;;;;;5051758;28;20099;-72
2021/12/02 01:42:03;;;;;;;0.20;0.00;;;;;;;;;;5045776;28;20582;-72
2021/12/02 01:44:29;;;;;;;2.53;0.20;;;3.10;99.90;;;;;;5033634;28;20034;-72
2021/12/02 01:46:59;;;;;;;2.95;0.20;;;3.30;99.90;;;;;;5043836;28;20025;-71
2021/12/02 01:49:34;;;;;;;0.70;0.30;;;3.40;99.90;;;;;;5033323;28;20107;-73
2021/12/02 01:52:01;;;;;;;0.38;0.10;;;3.10;99.90;;;;;;5051630;28;20029;-71
2021/12/02 01:54:27;;;;;;;0.40;0.13;;;3.40;99.90;;;;;;5049777;28;20514;-71
2021/12/02 01:57:07;;;;;;;0.45;0.10;;;3.40;99.90;;;;;;5051433;28;20455;-73
2021/12/02 01:59:38;;;;;;;0.90;0.10;;;3.60;99.90;;;;;;5049387;28;20403;-71
2021/12/02 02:02:07;;;;;;;0.85;0.10;;;3.50;99.90;;;;;;5043938;28;20025;-71
2021/12/02 02:04:33;;;;;;;0.30;0.10;;;3.50;99.90;;;;;;5034648;28;20140;-71
2021/12/02 02:07:09;;;;;;;0.35;0.10;;;4.50;99.90;;;;;;5014357;28;20104;-71
2021/12/02 02:09:35;;;;;;;0.30;0.00;;;3.70;99.90;;;;;;5048341;28;20394;-71
2021/12/02 02:12:02;;;;;;;2.03;0.30;;;3.70;99.90;;;;;;5051626;28;20021;-72
2021/12/02 02:14:28;;;;;;;1.15;0.10;;;3.80;99.90;;;;;;5050977;28;20031;-71
2021/12/02 02:16:56;;;;;;;4.07;0.10;;;3.70;99.90;;;;;;5049505;28;20445;-72
2021/12/02 02:19:23;;;;;;;2.67;0.20;;;;;;;;;;5052474;28;20017;-72
2021/12/02 02:21:48;;;;;;;3.17;0.10;;;3.60;99.90;;;;;;5056710;28;20036;-72
2021/12/02 02:24:17;;;;;;;0.40;0.10;;;3.60;99.90;;;;;;5047861;28;20391;-72
2021/12/02 02:26:43;;;;;;;0.38;0.10;;;;;;;;;;5055499;28;20029;-72
2021/12/02 02:29:11;;;;;;;0.93;0.10;;;3.70;99.90;;;;;;5043852;28;20109;-72
2021/12/02 02:31:39;;;;;;;3.38;0.20;;;3.60;99.90;;;;;;5036495;28;20091;-73
2021/12/02 02:34:05;;;;;;;5.00;0.65;;;;;;;;;;5035190;28;20454;-70
2021/12/02 02:36:34;;;;;;;0.10;0.08;;;3.50;99.90;;;;;;5035263;28;20025;-71
2021/12/02 02:39:02;;;;;;;0.85;0.10;;;3.50;99.90;;;;;;5046214;28;20025;-70
2021/12/02 02:41:36;;;;;;;4.80;0.20;;;3.50;99.90;;;;;;5055050;28;20025;-70
2021/12/02 02:44:03;;;;;;;2.00;0.30;;;3.50;99.90;;;;;;5043389;28;20036;-70
2021/12/02 02:46:32;;;;;;;1.63;0.25;;;3.50;99.90;;;;;;5034709;28;20034;-70
2021/12/02 02:48:59;;;;;;;4.13;0.40;;;3.50;99.90;;;;;;5043236;28;20101;-71
2021/12/02 02:51:26;;;;;;;1.95;0.30;;;3.60;99.90;;;;;;5036292;28;20099;-71
2021/12/02 02:53:56;;;;;;;3.60;0.25;;;3.70;99.90;;;;;;5053849;28;20020;-70
2021/12/02 02:56:24;;;;;;;5.13;0.30;;;3.70;99.90;;;;;;5052507;28;20053;-70
2021/12/02 02:59:07;;;;;;;2.47;0.20;;;3.90;99.90;;;;;;5054544;28;20104;-71
2021/12/02 03:01:44;;;;;;;7.88;0.40;;;3.70;99.90;;;;;;5037504;28;20037;-71
2021/12/02 03:06:52;;;;;;;1.02;0.20;;;3.80;99.90;;;;;;5033948;28;20507;-72
2021/12/02 03:09:27;;;;;;;1.20;0.20;;;3.30;99.90;;;;;;5034776;28;20047;-68
2021/12/02 03:12:03;;;;;;;1.45;0.20;;;3.80;99.90;;;;;;5035295;28;20037;-70
2021/12/02 03:14:47;;;;;;;0.93;0.17;;;3.80;99.90;;;;;;5053952;28;20040;-71
2021/12/02 03:17:13;;;;;;;1.80;0.30;;;3.80;99.90;;;;;;5053735;28;20075;-70
2021/12/02 03:19:41;;;;;;;2.33;0.20;;;3.70;99.90;;;;;;5033922;28;20128;-71
2021/12/02 03:22:07;;;;;;;1.25;0.20;;;3.70;99.90;;;;;;5054207;28;20021;-71
2021/12/02 03:24:33;;;;;;;2.60;0.30;;;;;;;;;;5048777;28;20557;-71
2021/12/02 03:26:59;;;;;;;2.03;0.20;;;;;;;;;;5053827;28;20037;-71
2021/12/02 03:29:25;;;;;;;1.33;0.40;;;;;;;;;;5042157;28;20722;-71
2021/12/02 03:31:51;;;;;;;1.55;0.20;;;;;;;;;;5049890;28;20040;-71
2021/12/02 03:34:17;;;;;;;1.67;0.15;;;3.60;99.90;;;;;;5045540;28;20048;-72
2021/12/02 03:36:43;;;;;;;2.70;0.28;;;;;;;;;;5039859;28;20104;-72
2021/12/02 03:39:11;;;;;;;0.63;0.30;;;3.60;99.90;;;;;;5053804;28;20029;-71
2021/12/02 03:41:38;;;;;;;3.53;0.20;;;3.10;99.90;;;;;;5030688;28;20116;-72
2021/12/02 03:44:04;;;;;;;2.83;0.35;;;;;;;;;;5033615;28;20337;-72
2021/12/02 03:46:30;;;;;;;5.13;0.40;;;;;;;;;;5037035;28;20060;-70
2021/12/02 03:48:56;;;;;;;1.23;0.32;;;;;;;;;;5052059;28;20040;-71
2021/12/02 03:51:23;;;;;;;2.00;0.30;;;3.70;99.90;;;;;;5033072;28;20025;-72
2021/12/02 03:53:48;;;;;;;1.17;0.30;;;3.70;99.90;;;;;;5015711;28;20025;-72
2021/12/02 03:56:15;;;;;;;2.42;0.30;;;3.70;99.90;;;;;;5016899;28;20022;-72
2021/12/02 03:58:42;;;;;;;0.65;0.20;;;3.60;99.90;;;;;;5053368;28;20124;-72
2021/12/02 04:01:10;;;;;;;1.00;0.28;;;3.60;99.90;;;;;;5053016;28;20021;-71
2021/12/02 04:03:36;;;;;;;2.72;0.50;;;3.60;99.90;;;;;;5047956;28;20029;-71
2021/12/02 04:06:02;;;;;;;3.22;0.50;;;3.60;99.90;;;;;;5051122;28;20052;-71
2021/12/02 04:08:50;;;;;;;3.88;0.40;;;3.60;99.90;;;;;;5052694;28;20624;-71
2021/12/02 04:11:35;;;;;;;3.35;0.40;;;3.50;99.90;;;;;;5053261;28;20497;-72
2021/12/02 04:16:32;;;;;;;4.53;1.27;;;;;;;;;;5033484;28;19909;-73
2021/12/02 04:18:58;;;;;;;0.98;0.20;;;3.60;99.90;;;;;;5033229;28;20018;-71
2021/12/02 04:21:23;;;;;;;1.08;0.30;;;;;;;;;;5016213;28;20039;-72
2021/12/02 04:23:49;;;;;;;1.35;0.20;;;;;;;;;;5050976;28;20020;-73
2021/12/02 04:26:15;;;;;;;0.80;0.28;;;3.50;99.90;;;;;;5052416;28;20025;-71
2021/12/02 04:28:41;;;;;;;1.02;0.20;;;;;;;;;;5021803;28;20625;-69
2021/12/02 04:31:07;;;;;;;0.70;0.20;;;3.20;99.90;;;;;;5032759;28;20399;-71
2021/12/02 04:33:33;;;;;;;4.75;0.20;;;;;;;;;;5051083;28;20045;-70
2021/12/02 04:36:00;;;;;;;3.92;0.30;;;3.50;99.90;;;;;;5052419;28;20061;-71
2021/12/02 04:38:27;;;;;;;0.38;0.20;;;3.70;99.90;;;;;;5018846;28;20542;-71
2021/12/02 04:40:53;;;;;;;0.90;0.20;;;;;;;;;;5014914;28;20026;-72
2021/12/02 04:43:19;;;;;;;2.78;0.30;;;;;;;;;;5048809;28;20411;-71
2021/12/02 04:45:45;;;;;;;0.60;0.20;;;3.20;99.90;;;;;;5034321;28;20112;-72
2021/12/02 04:48:11;;;;;;;0.73;0.40;;;;;;;;;;5037286;28;20033;-72
2021/12/02 04:50:36;;;;;;;3.15;0.22;;;3.30;99.90;;;;;;5032496;28;20028;-71
2021/12/02 04:53:03;;;;;;;5.32;0.43;;;;;;;;;;5046266;28;20028;-71
2021/12/02 04:55:29;;;;;;;6.13;0.40;;;;;;;;;;5064877;23;20102;-69
2021/12/02 04:57:55;;;;;;;1.35;0.30;;;;;;;;;;5051861;28;20033;-70
2021/12/02 05:00:21;;;;;;;0.70;0.22;;;;;;;;;;5036542;28;20035;-72
2021/12/02 05:02:47;;;;;;;3.65;0.30;;;;;;;;;;5032442;28;20095;-73
2021/12/02 05:05:13;;;;;;;0.95;0.43;;;;;;;;;;5032661;28;20430;-73
2021/12/02 05:07:39;;;;;;;1.55;0.13;;;;;;;;;;5045565;28;20029;-72
2021/12/02 05:10:06;;;;;;;4.90;0.88;;;3.20;99.90;;;;;;5051926;28;20033;-71
2021/12/02 05:12:32;;;;;;;3.60;0.50;;;;;;;;;;5033629;28;20505;-71
2021/12/02 05:14:58;;;;;;;2.78;0.30;;;;;;;;;;5051621;28;20100;-72
2021/12/02 05:17:24;;;;;;;12.00;0.20;;;;;;;;;;5051864;28;20055;-71
2021/12/02 05:19:50;;;;;;;3.53;0.50;;;3.10;99.90;;;;;;5052001;28;20021;-72
2021/12/02 05:22:16;;;;;;;0.50;0.28;;;;;;;;;;5051616;28;20086;-72
2021/12/02 05:24:42;;;;;;;7.53;0.40;;;;;;;;;;5051696;28;20471;-73
2021/12/02 05:27:08;;;;;;;4.60;0.35;;;;;;;;;;5051052;28;20514;-71
2021/12/02 05:29:34;;;;;;;1.23;0.38;;;2.80;99.90;;;;;;5051581;28;20044;-72
2021/12/02 05:32:00;;;;;;;1.08;0.20;;;3.90;99.90;;;;;;5051304;28;20029;-71
2021/12/02 05:34:26;;;;;;;0.95;0.30;;;3.00;99.90;;;;;;5052569;28;20123;-71
2021/12/02 05:36:51;;;;;;;0.98;0.25;;;3.00;99.90;;;;;;5051184;28;20096;-70
2021/12/02 05:39:17;;;;;;;5.50;0.57;;;3.00;99.90;;;;;;5052199;28;20025;-72
2021/12/02 05:41:43;;;;;;;3.95;0.45;;;3.00;99.90;;;;;;5051754;28;20037;-70
2021/12/02 05:44:09;;;;;;;3.28;0.43;;;;;;;;;;5051922;28;20029;-71
2021/12/02 05:46:35;;;;;;;2.20;0.32;;;;;;;;;;5050513;28;20039;-70
2021/12/02 05:49:01;;;;;;;4.90;0.60;;;;;;;;;;5051544;28;20020;-72
2021/12/02 05:51:27;;;;;;;1.48;0.32;;;3.00;99.90;;;;;;5051366;28;20017;-70
2021/12/02 05:53:52;;;;;;;1.35;0.30;;;3.20;99.90;;;;;;5051019;28;20096;-72
2021/12/02 05:56:18;;;;;;;5.93;0.40;;;3.20;99.90;;;;;;5050750;28;20124;-71
2021/12/02 05:58:44;;;;;;;2.53;0.30;;;3.10;99.90;;;;;;5051684;28;20033;-71
2021/12/02 06:01:10;;;;;;;1.50;0.25;;;;;;;;;;5051346;28;20025;-70
2021/12/02 06:03:37;;;;;;;3.80;0.30;;;;;;;;;;5050863;28;20029;-69
2021/12/02 06:06:04;;;;;;;2.70;0.30;;;3.10;99.90;;;;;;5051177;28;20025;-71
2021/12/02 06:08:30;;;;;;;1.23;0.22;;;3.10;99.90;;;;;;5051623;28;20025;-72
2021/12/02 06:10:56;;;;;;;1.58;0.28;;;;;;;;;;5051087;28;20542;-70
2021/12/02 06:13:24;;;;;;;2.45;0.30;;;;;;;;;;5051273;28;20147;-73
2021/12/02 06:15:50;;;;;;;2.28;0.30;;;;;;;;;;5050765;28;20021;-72
2021/12/02 06:18:16;;;;;;;5.30;0.40;;;2.90;99.90;;;;;;5051522;28;20044;-73
2021/12/02 06:20:42;;;;;;;5.95;0.73;;;3.10;99.90;;;;;;5033261;28;20483;-72
2021/12/02 06:23:07;;;;;;;3.30;0.40;;;2.50;99.90;;;;;;5051439;28;20132;-71
2021/12/02 06:27:59;;;;;;;2.25;0.40;;;;;;;;;;5051458;28;20045;-72
2021/12/02 06:30:26;;;;;;;4.78;0.68;;;2.90;99.90;;;;;;5051287;28;20028;-72
2021/12/02 06:32:52;;;;;;;1.60;0.50;;;;;;;;;;5033389;28;20511;-72
2021/12/02 06:35:18;;;;;;;2.15;0.40;;;;;;;;;;5050482;28;20101;-72
2021/12/02 06:37:46;;;;;;;1.88;0.40;;;2.80;99.90;;;;;;5050416;28;20230;-71
2021/12/02 06:40:12;;;;;;;5.85;0.52;;;;;;;;;;5051459;28;20017;-72
2021/12/02 06:42:40;;;;;;;2.03;0.30;;;;;;;;;;5050840;28;20028;-69
2021/12/02 06:45:06;;;;;;;3.55;0.30;;;;;;;;;;5051048;28;20364;-72
2021/12/02 06:47:38;;;;;;;3.22;0.40;;;;;;;;;;5050576;28;20032;-71
2021/12/02 06:50:05;;;;;;;3.55;0.57;;;2.40;99.90;;;;;;5033071;28;20024;-70
2021/12/02 06:52:31;;;;;;;1.08;0.40;;;2.80;99.90;;;;;;5047559;28;20021;-72
2021/12/02 06:54:58;;;;;;;0.40;0.30;;;;;;;;;;5032053;28;20033;-70
2021/12/02 06:57:24;;;;;;;1.13;0.40;;;1.70;99.90;;;;;;5050600;28;20021;-73
2021/12/02 06:59:49;;;;;;;3.50;0.40;;;;;;;;;;5050831;28;20108;-71
2021/12/02 07:02:15;;;;;;;0.88;0.30;;;2.20;99.90;;;;;;5050745;28;20040;-73
2021/12/02 07:04:41;;;;;;;3.15;0.82;;;2.40;99.90;;;;;;5050921;28;20074;-69
2021/12/02 07:07:07;;;;;;;1.02;0.40;;;;;;;;;;5051579;28;20103;-74
2021/12/02 07:09:33;;;;;;;3.60;0.40;;;;;;;;;;5054883;28;20040;-72
2021/12/02 07:11:59;;;;;;;1.92;0.50;;;;;;;;;;5054120;28;20119;-71
2021/12/02 07:14:26;;;;;;;1.58;0.40;;;;;;;;;;4354069;28;10000711;-72
2021/12/02 07:16:52;;;;;;;3.50;0.40;;;;;;;;;;5051096;28;20055;-72
2021/12/02 07:19:18;;;;;;;2.60;0.30;;;;;;;;;;5051724;28;20025;-72
2021/12/02 07:21:45;;;;;;;1.20;0.35;;;;;;;;;;5052507;28;20028;-71
2021/12/02 07:24:13;;;;;;;0.52;0.47;;;2.30;99.90;;;;;;5034811;28;20036;-71
2021/12/02 07:26:41;;;;;;;3.25;0.43;;;2.60;99.90;;;;;;5051332;28;20084;-71
2021/12/02 07:29:15;;;;;;;4.80;0.50;;;2.70;99.90;;;;;;5050706;28;20521;-72
2021/12/02 07:31:42;;;;;;;;;;;2.70;99.90;;;;;;5051124;28;20025;-71
2021/12/02 07:34:09;;;;;;;0.95;0.32;;;2.70;99.90;;;;;;5032754;28;19948;-74
2021/12/02 07:36:35;;;;;;;1.23;0.32;;;2.70;99.90;;;;;;5050287;28;20021;-72
2021/12/02 07:39:07;;;;;;;1.30;0.45;;;2.70;99.90;;;;;;5054239;28;20037;-71
2021/12/02 07:41:33;;;;;;;3.22;0.70;;;;;;;;;;5050354;28;20029;-72
2021/12/02 07:43:59;;;;;;;4.53;0.40;;;2.60;99.90;;;;;;5047446;28;20057;-72
2021/12/02 07:46:25;;;;;;;3.75;0.57;;;2.00;99.90;;;;;;5048645;28;20025;-71
2021/12/02 07:48:52;;;;;;;1.67;0.50;;;2.80;99.90;;;;;;5051007;28;20072;-72
2021/12/02 07:51:18;;;;;;;3.13;0.35;;;;;;;;;;5050980;28;20027;-72
2021/12/02 07:53:47;;;;;;;1.90;0.50;;;2.70;99.90;;;;;;5049975;28;20437;-72
2021/12/02 07:56:15;;;;;;;1.35;0.28;;;2.80;99.90;;;;;;5050610;28;20034;-73
2021/12/02 07:58:43;;;;;;;3.05;0.95;;;2.80;99.90;;;;;;5050794;28;20044;-74
2021/12/02 08:01:10;;;;;;;0.50;0.30;;;2.50;99.90;;;;;;5050365;28;20029;-71
2021/12/02 08:03:37;;;;;;;1.83;0.40;;;;;;;;;;5049121;28;20367;-71
2021/12/02 08:06:03;;;;;;;7.85;0.73;;;;;;;;;;5049841;28;20036;-72
2021/12/02 08:08:29;;;;;;;3.13;0.30;;;;;;;;;;5049726;28;20033;-73
2021/12/02 08:10:55;;;;;;;0.82;0.47;;;;;;;;;;5049678;28;20085;-73
2021/12/02 08:13:30;;;;;;;3.63;0.40;;;;;;;;;;5028189;28;20032;-72
2021/12/02 08:15:56;;;;;;;6.20;0.57;;;;;;;;;;5037121;28;20036;-72
2021/12/02 08:18:22;;;;;;;3.45;0.50;;;;;;;;;;5048962;28;20029;-72
2021/12/02 08:20:48;;;;;;;1.65;0.50;;;;;;;;;;5049269;28;20100;-72
2021/12/02 08:23:14;;;;;;;1.17;0.40;;;;;;;;;;5051545;28;20171;-70
2021/12/02 08:25:39;;;;;;;1.15;0.50;;;2.90;99.90;;;;;;5048837;28;20035;-71
2021/12/02 08:28:05;;;;;;;1.20;0.30;;;2.80;99.90;;;;;;5049469;28;20037;-72
2021/12/02 08:30:33;;;;;;;3.33;0.55;;;3.00;99.90;;;;;;5048303;28;20494;-72
2021/12/02 08:33:00;;;;;;;1.30;0.30;;;2.90;99.90;;;;;;5029614;28;20025;-73
2021/12/02 08:35:26;;;;;;;2.80;0.93;;;;;;;;;;5040310;28;20017;-72
2021/12/02 08:37:55;;;;;;;1.52;0.40;;;3.10;99.90;;;;;;5049443;28;20063;-74
2021/12/02 08:40:30;;;;;;;1.67;0.20;;;3.10;99.90;;;;;;5048733;28;20040;-71
2021/12/02 08:42:56;;;;;;;1.42;0.30;;;;;;;;;;5049738;28;20119;-73
2021/12/02 08:45:22;;;;;;;3.55;0.43;;;;;;;;;;5047871;28;20538;-73
2021/12/02 08:47:48;;;;;;;2.75;0.32;;;;;;;;;;5031077;28;20422;-73
2021/12/02 08:50:16;;;;;;;1.58;0.40;;;3.00;99.90;;;;;;5048725;28;20029;-73
2021/12/02 08:52:42;;;;;;;1.55;0.50;;;;;;;;;;5048955;28;20037;-71
2021/12/02 08:55:08;;;;;;;2.92;0.40;;;;;;;;;;5048696;28;20037;-73
2021/12/02 08:57:35;;;;;;;1.08;0.38;;;2.80;99.90;;;;;;5049181;28;20028;-69
2021/12/02 09:00:01;;;;;;;1.17;0.22;;;;;;;;;;5048893;28;20021;-73
2021/12/02 09:02:27;;;;;;;1.10;0.40;;;;;;;;;;5031970;28;20367;-71
2021/12/02 09:04:53;;;;;;;4.65;0.40;;;;;;;;;;5033122;28;20029;-71
2021/12/02 09:07:19;;;;;;;3.58;0.47;;;;;;;;;;5059694;28;20033;-71
2021/12/02 09:09:45;;;;;;;1.13;0.40;;;;;;;;;;5062647;28;20021;-72
2021/12/02 09:12:11;;;;;;;5.70;0.70;;;;;;;;;;4708097;28;10000264;-70
2021/12/02 09:14:37;;;;;;;2.28;0.40;;;2.60;99.90;;;;;;5041413;28;20030;-70
2021/12/02 09:17:05;;;;;;;2.60;0.40;;;2.40;99.90;;;;;;5028564;28;20041;-73
2021/12/02 09:19:31;;;;;;;6.72;0.55;;;;;;;;;;5039650;28;20450;-72
2021/12/02 09:21:57;;;;;;;1.70;0.47;;;;;;;;;;5049761;28;20028;-72
2021/12/02 09:24:23;;;;;;;2.28;1.02;;;;;;;;;;5050493;28;20025;-74
2021/12/02 09:26:50;;;;;;;1.88;0.40;;;2.30;99.90;;;;;;5046812;28;20021;-73
2021/12/02 09:29:17;;;;;;;1.98;0.40;;;2.00;99.90;;;;;;5036796;28;20088;-73
2021/12/02 09:31:44;;;;;;;2.40;0.30;;;2.50;99.90;;;;;;5032374;28;20430;-72
2021/12/02 09:34:10;;;;;;;2.13;0.98;;;2.30;99.90;;;;;;5051863;28;20383;-73
2021/12/02 09:36:37;;;;;;;2.78;0.50;;;2.50;99.90;;;;;;5051958;28;20021;-72
2021/12/02 09:39:05;;;;;;;2.10;0.43;;;2.70;99.90;;;;;;5054935;28;20021;-73
2021/12/02 09:41:31;;;;;;;6.00;0.52;;;2.60;99.90;;;;;;5055698;28;20025;-72
2021/12/02 09:43:57;;;;;;;0.82;0.32;;;;;;;;;;5053161;28;20017;-71
2021/12/02 09:46:22;;;;;;;1.40;0.32;;;;;;;;;;5052108;28;20028;-71
2021/12/02 09:48:48;;;;;;;2.30;0.52;;;2.40;99.90;;;;;;5051327;28;20083;-72
2021/12/02 09:51:21;;;;;;;1.88;0.70;;;;;;;;;;5051842;28;20483;-72
2021/12/02 09:54:00;;;;;;;2.70;0.45;;;2.60;99.90;;;;;;5050664;28;20116;-73
2021/12/02 09:56:30;;;;;;;6.05;0.80;;;2.50;99.90;;;;;;5050753;28;20025;-71
2021/12/02 09:59:02;;;;;;;3.25;0.45;;;;;;;;;;5050611;28;20037;-71
2021/12/02 10:01:40;;;;;;;1.55;0.85;;;;;;;;;;5050284;28;20533;-71
2021/12/02 10:04:07;;;;;;;2.33;0.30;;;;;;;;;;5050967;28;20028;-72
2021/12/02 10:06:33;;;;;;;2.95;0.28;;;;;;;;;;5051030;28;20086;-74
2021/12/02 10:09:18;;;;;;;2.72;0.30;;;2.90;99.90;;;;;;5032449;28;20183;-73
2021/12/02 10:11:57;;;;;;;4.15;0.40;;;2.70;99.90;;;;;;5050392;28;20061;-72
2021/12/02 10:14:31;;;;;;;7.60;0.60;;;2.80;99.90;;;;;;5050332;28;20101;-73
2021/12/02 10:17:13;;;;;;;4.65;0.43;;;2.80;99.90;;;;;;5049446;28;20021;-74
2021/12/02 10:20:13;;;;;;;1.77;0.50;;;2.70;99.90;;;;;;5040403;28;20454;-73
2021/12/02 10:22:40;;;;;;;2.00;0.57;;;2.80;99.90;;;;;;5031166;28;20106;-72
2021/12/02 10:25:06;;;;;;;1.63;0.38;;;;;;;;;;5040008;28;20507;-73
2021/12/02 10:27:32;;;;;;;2.28;0.45;;;;;;;;;;5051082;28;20029;-72
2021/12/02 10:29:58;;;;;;;1.08;0.30;;;;;;;;;;5050999;28;20048;-71
2021/12/02 10:32:28;;;;;;;2.28;0.47;;;3.00;99.90;;;;;;5036960;28;20036;-71
2021/12/02 10:35:10;;;;;;;5.05;0.40;;;2.90;99.90;;;;;;5033112;28;20021;-72
2021/12/02 10:37:39;;;;;;;1.40;0.40;;;3.00;99.90;;;;;;5037847;28;20483;-70
2021/12/02 10:40:14;;;;;;;4.68;0.40;;;3.00;99.90;;;;;;5030686;28;20110;-73
2021/12/02 10:42:42;;;;;;;1.83;0.40;;;3.40;99.90;;;;;;5043178;28;20592;-72
2021/12/02 10:45:31;;;;;;;1.48;0.28;;;3.90;99.90;;;;;;5041509;28;20030;-75
2021/12/02 10:47:58;;;;;;;6.68;0.38;;;2.80;99.90;;;;;;5047538;28;20075;-72
2021/12/02 10:50:27;;;;;;;4.45;0.38;;;2.90;99.90;;;;;;5054420;28;20045;-72
2021/12/02 10:52:53;;;;;;;3.03;0.68;;;2.90;99.90;;;;;;5041258;28;20013;-73
2021/12/02 10:55:22;;;;;;;4.72;0.50;;;2.80;99.90;;;;;;5048063;28;20036;-75
2021/12/02 10:57:54;;;;;;;0.80;0.40;;;3.00;99.90;;;;;;5046689;28;20443;-70
2021/12/02 11:00:28;;;;;;;2.65;0.95;;;3.00;99.90;;;;;;5032369;28;20030;-71
2021/12/02 11:02:56;;;;;;;1.67;0.40;;;3.10;99.90;;;;;;4352170;28;10000826;-72
2021/12/02 11:05:34;;;;;;;2.80;0.68;;;3.10;99.90;;;;;;5037976;28;20028;-69
2021/12/02 11:08:07;;;;;;;0.95;0.40;;;3.10;99.90;;;;;;5039684;28;20033;-70
2021/12/02 11:10:41;;;;;;;2.05;0.45;;;3.20;99.90;;;;;;5036782;28;20360;-70
2021/12/02 11:13:08;;;;;;;8.15;0.57;;;3.30;99.90;;;;;;5037014;28;20041;-70
2021/12/02 11:15:37;;;;;;;2.17;0.40;;;3.50;99.90;;;;;;5034752;28;20453;-72
2021/12/02 11:18:06;;;;;;;2.30;0.63;;;3.70;99.90;;;;;;5045309;28;20032;-70
2021/12/02 11:20:50;;;;;;;7.05;0.60;;;4.10;99.90;;;;;;5040927;28;20120;-68
2021/12/02 11:23:31;;;;;;;2.60;0.30;;;4.50;99.90;;;;;;5036828;28;20032;-70
2021/12/02 11:25:57;;;;;;;1.67;0.50;;;;;;;;;;5040384;28;20032;-68
2021/12/02 11:28:24;;;;;;;6.53;0.70;;;5.40;99.90;;;;;;5035508;28;20143;-70
2021/12/02 11:30:51;;;;;;;1.67;0.35;;;6.30;99.90;;;;;;5029476;28;20044;-73
2021/12/02 11:33:19;;;;;;;1.50;0.40;;;;;;;;;;5044780;28;20108;-71
2021/12/02 11:35:46;;;;;;;2.70;0.30;;;6.70;99.90;;;;;;5034571;28;20500;-72
2021/12/02 11:38:17;;;;;;;2.13;0.50;;;7.30;99.90;;;;;;5040514;28;20037;-71
2021/12/02 11:40:46;;;;;;;0.93;0.32;;;7.80;99.90;;;;;;5029068;28;20052;-73
2021/12/02 11:43:15;;;;;;;1.85;0.40;;;8.40;99.90;;;;;;5045413;28;20048;-71
2021/12/02 11:45:44;;;;;;;2.20;0.47;;;9.50;99.90;;;;;;5036909;28;20043;-70
2021/12/02 11:48:11;;;;;;;1.83;0.50;;;9.60;99.90;;;;;;5040718;28;20051;-71
2021/12/02 11:50:37;;;;;;;1.25;0.45;;;10.10;99.90;;;;;;5036021;28;20556;-72
2021/12/02 11:53:03;;;;;;;3.60;1.23;;;10.10;99.90;;;;;;5014392;28;20040;-74
2021/12/02 11:55:33;;;;;;;3.47;0.50;;;10.30;99.90;;;;;;5044608;28;20033;-72
2021/12/02 11:57:59;;;;;;;1.92;0.63;;;;;;;;;;5029550;28;20036;-71
2021/12/02 12:00:27;;;;;;;3.17;0.50;;;8.40;99.90;;;;;;5036141;28;20037;-73
2021/12/02 12:03:00;;;;;;;4.40;0.73;;;8.00;99.90;;;;;;5046618;28;20211;-72
2021/12/02 12:05:30;;;;;;;1.88;0.32;;;7.80;99.90;;;;;;5051995;28;20100;-70
2021/12/02 12:07:56;;;;;;;2.80;0.40;;;;;;;;;;5041161;28;20053;-68
2021/12/02 12:10:29;;;;;;;6.07;0.40;;;7.70;99.90;;;;;;5046877;28;20114;-72
2021/12/02 12:13:15;;;;;;;3.10;0.50;;;8.30;99.90;;;;;;5047509;28;20033;-71
2021/12/02 12:15:44;;;;;;;1.17;0.40;;;8.40;99.90;;;;;;5045708;28;20044;-72
2021/12/02 12:18:11;;;;;;;3.05;1.10;;;8.30;99.90;;;;;;5044818;28;20032;-71
2021/12/02 12:20:54;;;;;;;3.38;0.57;;;7.50;99.90;;;;;;5036385;28;20057;-71
2021/12/02 12:23:40;;;;;;;3.53;0.47;;;6.70;99.90;;;;;;5042844;28;20372;-72
2021/12/02 12:26:27;;;;;;;4.50;0.40;;;6.00;99.90;;;;;;5033988;28;20434;-70
2021/12/02 12:29:05;;;;;;;0.80;0.30;;;5.60;99.90;;;;;;5030233;28;20052;-71
2021/12/02 12:32:03;;;;;;;1.13;0.30;;;5.30;99.90;;;;;;5037128;28;20105;-74
2021/12/02 12:34:36;;;;;;;2.17;1.15;;;;;;;;;;5019247;28;20100;-73
2021/12/02 12:40:03;;;;;;;3.45;0.75;;;5.40;99.90;;;;;;5040845;28;20029;-72
2021/12/02 12:42:29;;;;;;;1.80;0.35;;;;;;;;;;5046008;28;20108;-72
2021/12/02 12:44:58;;;;;;;4.50;0.50;;;7.20;99.90;;;;;;5032201;28;20074;-72
2021/12/02 12:47:46;;;;;;;2.70;0.68;;;8.70;99.90;;;;;;5038025;28;20852;-71
2021/12/02 12:50:42;;;;;;;3.88;0.50;;;10.30;97.90;;;;;;5046061;28;20037;-71
2021/12/02 12:53:17;;;;;;;1.35;0.35;;;10.80;97.00;;;;;;5015834;28;20443;-71
2021/12/02 12:55:52;;;;;;;1.70;0.45;;;10.00;96.70;;;;;;5035535;28;20148;-71
2021/12/02 12:58:29;;;;;;;2.78;0.55;;;8.90;98.40;;;;;;5042739;28;20056;-70
2021/12/02 13:00:57;;;;;;;0.63;0.40;;;8.00;99.80;;;;;;5046163;28;20033;-70
2021/12/02 13:03:39;;;;;;;1.83;0.50;;;9.30;99.90;;;;;;5038310;28;20095;-69
2021/12/02 13:06:10;;;;;;;2.65;1.23;;;6.80;99.90;;;;;;5046335;28;20033;-70
2021/12/02 13:08:57;;;;;;;2.70;0.50;;;6.10;99.90;;;;;;5013478;28;20120;-69
2021/12/02 13:11:25;;;;;;;4.65;0.50;;;6.00;99.90;;;;;;5043224;28;20387;-69
2021/12/02 13:13:53;;;;;;;1.10;0.43;;;7.30;99.90;;;;;;5035835;28;20445;-70
2021/12/02 13:16:20;;;;;;;3.72;2.08;;;;;;;;;;5040095;28;20407;-68
2021/12/02 13:18:45;;;;;;;3.15;0.40;;;;;;;;;;5046598;28;20415;-69
2021/12/02 13:21:27;;;;;;;1.60;0.55;;;7.70;99.60;;;;;;5046053;28;20067;-69
2021/12/02 13:23:54;;;;;;;2.40;0.50;;;8.10;99.30;;;;;;5036995;28;20032;-70
2021/12/02 13:26:23;;;;;;;2.40;0.70;;;9.00;98.30;;;;;;5043313;28;20390;-67
2021/12/02 13:28:50;;;;;;;2.00;1.08;;;9.80;96.90;;;;;;5045053;28;20054;-67
2021/12/02 13:31:18;;;;;;;2.65;0.50;;;9.70;96.00;;;;;;5041405;28;20034;-67
2021/12/02 13:33:44;;;;;;;3.08;0.40;;;;;;;;;;5047296;28;20056;-67
2021/12/02 13:36:13;;;;;;;2.25;0.50;;;9.90;94.30;;;;;;5039087;28;20045;-67
2021/12/02 13:38:42;;;;;;;1.35;0.50;;;9.90;94.20;;;;;;5045086;28;20120;-67
2021/12/02 13:41:17;;;;;;;5.93;1.38;;;10.10;93.60;;;;;;5022559;28;20018;-68
2021/12/02 13:43:53;;;;;;;2.28;0.50;;;10.40;93.00;;;;;;5033344;28;20025;-68
2021/12/02 13:46:31;;;;;;;1.88;0.50;;;10.10;99.90;;;;;;5032990;28;20032;-66
2021/12/02 13:48:59;;;;;;;4.38;0.60;;;;;;;;;;5038511;28;20029;-69
2021/12/02 13:54:44;;;;;;;2.15;0.70;;;10.70;97.20;;;;;;5045284;28;20135;-67